Timeline UpdatesTrip UpdatesNews PostsPvt Posts♥♥Travel TipsAdmin PostsConv PostsFollowed PostsChat RequestsBlog PostsPNR Posts

Disclaimer
Search
 
 
Thu Dec 18, 2014 19:57:02 ISTHomeTrainsΣChainsAtlasPNRForumGalleryNewsFAQTripsMembersLoginFeedback
PNR Super Search

Ticket PNR Status Inquiry - PNR: 660-xxxxxxx (PRS)

OLD STATUS

Status Last Updated on: Jun 22 2012 (5:37PM) IST

Date of Journey: Fri Jun 22, 2012   Class: AC 3-tier - 3A
Passenger 1: B2,58 (Booking Status: B2,58,GN)
Chart PREPARED

Guwahati - Trivandrum Express/12508

Travel Time: 23h 54m    17 halts    Distance: 1360 km    Avg Speed: 56 km/hr
Type: SuperFast
Zone: NFR/Northeast Frontier
Departs @ 15:36 (Avg 1h 6m late)
Platform# ???
     F 
KishanGanj/KNE 
Arrives @ 15:30 +1 night (Avg 37m late)
Platform# 3
      S
Visakhapatnam Junction/VSKP 

17 halts. 257 intermediate Stations between KishanGanj and Visakhapatnam Junction

Show ALL intermediate Stations  Show Old Time-Table

#TrkCodeStation NameX/OArrivesAvgDepartsAvgHaltPFDay#KmSpeedElevZoneAddress
1|==|GHYGuwahati (7)  -06:30+261-494.83560mNFRGuwahati, Assam
2|-=|KYQKamakhya Junction (4)X  06:43 06:42+506:44+51 2m--1-487.86855mNFRDist - KAMRUP, Assam
3|--|RNYRangiya Junction (5)X  07:22 07:20+2307:27 07:25+325m--1-447.17658mNFRRangia, Assam
4|--|BPRDBarpeta Road (2)  08:21 08:16+5108:22 08:18+511 2m--1-382.33449mNFRHowli, Assam
5|-=|NBQNew Bongaigaon Junction (4)  09:35+2209:40+225m--1-338.26458mNFR783381., Assam
6|==|KOJKokrajhar (3)  10:07 10:06+3210:08+321 2m--1-310.38646mNFR03661-270618, Assam
7!==!NOQNew Alipurduar (2)X  11:03+3811:05+382m--1-231.54548mNFRDist - Alipurduar - 736121, West Bengal
8!==!NCBNew Cooch Behar Junction (5)X  11:30+3511:32+382m--1-212.87847mNFRDist : Cooch Behar-736101, West Bengal
9|--|DQGDhupguri (2)  12:20 12:18+4812:22 12:20+522m--1-152.73675mNFRDist - Jalpaiguri, West Bengal
10%==|NJPNew Jalpaiguri Junction (8)X  14:10+4214:25+4215m31-87.376114mNFRCity-Siliguri . Dist-Jalpaiguri, West Bengal
11%==%KNEKishanGanj (3)»  15:34+1:0615:36+1:062m--10.05152mNFRKishanganj, Bihar
12%==%MLDTMalda Town (5)  18:30+3818:45+3315m--1148.25530mERDist - Malda, West Bengal
13%==%PKRPakur (2)X  20:03+3420:04+351m21219.44937mERDist:- Pakur, Jharkhand
14%==%RPHRampurhat (3)  21:08+3521:10+362m11272.07841mERDIST - Birbhum, West Bengal
15%==%BHPBolpur Shantiniketan (3)X  21:57+4322:02+425m--1332.75459mERDist - Birbhum, West Bengal
16/==/HWHKolkata Howrah Junction (23)00:45+2501:05+2220m102478.96910mERHowrah 711101, West Bengal
17/==/KGPKharagpur Junction (10)  02:45+4003:00+3615m32593.98242mSERDist: West Medinipur, West Bengal
18/==/BLSBalasore (4)X  04:25+3304:27+332m--2709.96719mSERBalasore, Odisha
19/==/BHCBhadrak (4)X  05:23+5605:25+562m--2772.48423mECoRBhadrak, Odisha
20/==/JJKRJajpur Keonjhar Road (4)  05:57 05:56+1:0305:58+1:051 2m--2816.17636mECoRJajpur, Odisha
21%==/CTCCuttack Junction (5)  06:55+1:0507:00+1:125m--2888.14228mECoRCuttack, Odisha
22/==/BBSBhubaneswar (4)X  07:45 07:40+5807:50 07:45+585m42915.92540mECoRBhubaneshwar, Odisha
23/==/KURKhurda Road Junction (7)X  08:30+5808:45+5915m--2934.97925mECoRKhordha, Odisha
24/==/BALUBalugaon (3)  09:41 09:39+1:0109:42 09:41+1:011 2m--21005.98511mECoR752030, Odisha
25/==/BAMBrahmapur (3)  10:30 10:35+1:1110:35 10:40+1:105m--21082.05627mECoRBerhampur, Odisha
26/==/PSAPalasa (3)  12:00+1:0112:02+1:012m--21156.47531mECoRKasibugga, Andhra Pradesh
27/==/CHESrikakulam Road (4)  13:00+1:1913:02+1:192m--21229.37234mECoRsrikakulam road ph .no. 08942-287222, Andhra Pradesh
28/==/VZMVizianagaram Junction (5)X  14:00+1:2114:05+1:205m--21298.94363mECoRVizianagaram, Andhra Pradesh
29/==/VSKPVisakhapatnam Junction (8)•X15:30+3715:50+3820m321360.06611mECoRVishakhapatnam 530001, Andhra Pradesh
30/==/RJYRajahmundry (3)  18:53+5918:55+1:022m121559.85423mSCRRajahmundry ph.no. 0883-2420541, Andhra Pradesh
31/==/BZAVijayawada Junction (10)X  21:40+5821:55+1:0315m--21709.16824mSCRVijayawada 520001, Andhra Pradesh
32/==/MASChennai Central (12)04:15+5804:40+5625m632140.0569mSRChennai 600003, Tamil Nadu
33/==/AJJArakkonam Junction (8)  05:53+1:3805:55+1:382m--32208.66691mSRArakkonam, Tamil Nadu
34/==/KPDKatpadi Junction (5)X  06:50+1:1906:55+1:175m132269.456213mSRVellore 632007, Tamil Nadu
35/==/JTJJolarpettai Junction (5)  08:25+1:2308:30+1:235m--32353.390405mSRJolarpettai, Tamil Nadu
36/==/SASalem Junction (6)  09:50+1:0109:55+1:005m--32473.549283mSRSalem, Tamil Nadu
37/==/EDErode Junction (4)X  11:10+5411:20+1:0210m232534.970175mSRErode ph.no: 0424-2256111, Tamil Nadu
38/==/TUPTiruppur (2)  12:03+5112:05+512m132585.143305mSRTiruppur. Ph:0421-2200450, Tamil Nadu
39/==/CBECoimbatore Main Junction (6)X  13:15+1:0113:20+1:055m--32635.639416mSRCoimbatore 641001, Tamil Nadu
40/==/PGTPalakkad Junction (4)  14:45+1914:50+205m--32690.95884mSRPalghat Tel: 0491 2555231, Kerala
41/==/TCRThrissur (4)  16:17 16:09+3616:20 16:12+363m132766.7736mSRThrissur Tel: 0487 2423150, Kerala
42/==/AWYAluva (3)  17:07 16:57+4817:10 17:00+503m132821.32712mSRPh: 0484-2624141, Kerala
43/==/ERNErnakulam Town (North) (2)  17:45 17:37+5117:50 17:40+525 3m--32838.1559mSRTel: 0484 2395198, Kerala
44%==%KTYMKottayam (3)X  19:00 18:45+5519:05 18:50+555m--32898.15715mSRTel: 0481 2563535, Kerala
45%==%TRVLTiruvalla (2)X  19:33 19:17+1:0219:35 19:18+1:042 1m--32923.86827mSRPh: 0469-2601314, Kerala
46/==%CNGRChengannur (3)  19:48 19:26+5819:50 19:28+582m132932.9686mSRPh: 0479-2452340, Kerala
47/==/MVLKMavelikara (3)X  20:03 19:39+1:2920:05 19:40+1:292 1m--32945.45113mSRMavelikkara Ph: 0479-2302249, Kerala
48/==/KYJKayamkulam Junction (5)X  20:18 19:49+5820:20 19:50+582 1m--32953.14511mSRAlappuzha Ph;0479-2442042, Kerala
49/==/QLNKollam Junction (6)  21:05 20:45+1:1621:10 20:50+1:165m--32993.93916mSRKollam 0474-2746194, Kerala
50/==/TVCTrivandrum Central (5)  22:30+40---33058.5-12mSRThiruvananthapuram 695001, Kerala
Scroll to Top
Scroll to Bottom


Go to Mobile site